Time;durP1;ratioP1;P1;durP2;ratioP2;P2;SDS_P1;SDS_P2;PMS_P1;PMS_P2;Temp;Humidity;BMP_temperature;BMP_pressure;BME280_temperature;BME280_humidity;BME280_pressure;Samples;Min_cycle;Max_cycle;Signal;HPM_P1;HPM_P2
2022/01/15 00:00:27;;;;;;;23.67;8.32;;;5.60;99.90;;;;;;10251143;28;84753;-48
2022/01/15 00:05:27;;;;;;;24.35;8.40;;;5.60;99.90;;;;;;10251257;28;84911;-49
2022/01/15 00:10:29;;;;;;;27.73;8.93;;;5.60;99.90;;;;;;10263326;28;84136;-51
2022/01/15 00:15:39;;;;;;;24.40;8.82;;;5.70;99.90;;;;;;10290997;28;85236;-52
2022/01/15 00:20:40;;;;;;;28.63;9.07;;;5.70;99.90;;;;;;10290569;28;84101;-47
2022/01/15 00:25:41;;;;;;;28.65;9.68;;;5.70;99.90;;;;;;10288549;28;84185;-54
2022/01/15 00:30:41;;;;;;;26.45;9.27;;;5.70;99.90;;;;;;10290455;28;84131;-46
2022/01/15 00:35:42;;;;;;;23.63;9.27;;;5.60;99.90;;;;;;10273705;28;85984;-47
2022/01/15 00:40:42;;;;;;;28.40;9.65;;;5.60;99.90;;;;;;10287247;28;85029;-50
2022/01/15 00:45:43;;;;;;;25.83;9.25;;;5.60;99.90;;;;;;10288493;28;84125;-48
2022/01/15 00:50:44;;;;;;;26.17;8.23;;;5.60;99.90;;;;;;10289225;28;84129;-48
2022/01/15 00:55:45;;;;;;;26.90;9.13;;;5.60;99.90;;;;;;10286835;28;85049;-49
2022/01/15 01:00:46;;;;;;;23.17;7.57;;;5.60;99.90;;;;;;10288902;28;84067;-49
2022/01/15 01:05:47;;;;;;;28.27;9.10;;;5.60;99.90;;;;;;10288358;28;84896;-48
2022/01/15 01:10:53;;;;;;;25.50;9.70;;;5.50;99.90;;;;;;10286336;28;86029;-48
2022/01/15 01:31:34;;;;;;;26.98;9.30;;;5.60;99.90;;;;;;10247387;28;84099;-49
2022/01/15 01:36:58;;;;;;;24.30;8.55;;;5.70;99.90;;;;;;10246678;28;84873;-49
2022/01/15 01:42:34;;;;;;;30.35;8.65;;;5.50;99.90;;;;;;10243218;28;84875;-49
2022/01/15 01:47:39;;;;;;;33.88;10.13;;;5.60;99.90;;;;;;10242144;28;85229;-52
2022/01/15 01:52:41;;;;;;;27.85;8.77;;;5.50;99.90;;;;;;10245784;28;85238;-51
2022/01/15 01:57:43;;;;;;;26.27;8.85;;;5.50;99.90;;;;;;10258998;22;85417;-59
2022/01/15 02:02:44;;;;;;;24.40;8.35;;;5.60;99.90;;;;;;10244988;28;84134;-58
2022/01/15 02:07:45;;;;;;;28.50;7.88;;;5.60;99.90;;;;;;10245143;28;84894;-60
2022/01/15 02:12:48;;;;;;;35.65;9.70;;;5.50;99.90;;;;;;10244827;28;85045;-58
2022/01/15 02:17:50;;;;;;;27.50;9.05;;;5.60;99.90;;;;;;10243771;28;84146;-57
2022/01/15 02:28:12;;;;;;;32.00;9.18;;;5.60;99.90;;;;;;10206389;28;84278;-60
2022/01/15 02:33:13;;;;;;;28.27;8.13;;;5.70;99.90;;;;;;10203203;28;84165;-59
2022/01/15 02:38:14;;;;;;;30.23;9.82;;;5.60;99.90;;;;;;10205657;28;84177;-60
2022/01/15 02:43:19;;;;;;;28.33;9.10;;;5.60;99.90;;;;;;10205629;28;84360;-61
2022/01/15 02:48:21;;;;;;;26.10;8.02;;;5.60;99.90;;;;;;10204595;28;84864;-61
2022/01/15 02:53:22;;;;;;;22.27;8.52;;;5.60;99.90;;;;;;10206592;28;84010;-60
2022/01/15 02:58:24;;;;;;;27.48;9.30;;;5.50;99.90;;;;;;10205368;28;84167;-60
2022/01/15 03:03:24;;;;;;;31.00;9.35;;;5.50;99.90;;;;;;10206494;28;84145;-61
2022/01/15 03:08:25;;;;;;;31.63;9.93;;;5.60;99.90;;;;;;10205894;28;84230;-59
2022/01/15 03:13:26;;;;;;;29.55;8.63;;;5.60;99.90;;;;;;10197877;28;87360;-60
2022/01/15 03:18:27;;;;;;;26.23;8.90;;;5.60;99.90;;;;;;10217856;28;85031;-61
2022/01/15 03:23:28;;;;;;;27.33;8.60;;;5.60;99.90;;;;;;10214142;28;84016;-61
2022/01/15 03:28:29;;;;;;;26.67;8.48;;;5.60;99.90;;;;;;10211251;28;85100;-59
2022/01/15 03:33:29;;;;;;;26.98;9.88;;;5.60;99.90;;;;;;10210699;28;84180;-61
2022/01/15 03:38:30;;;;;;;29.20;8.68;;;5.60;99.90;;;;;;10208567;28;86349;-59
2022/01/15 03:43:31;;;;;;;32.10;9.25;;;5.60;99.90;;;;;;10210301;28;84899;-59
2022/01/15 03:48:31;;;;;;;29.55;8.93;;;5.60;99.90;;;;;;10209409;28;84792;-59
2022/01/15 03:53:32;;;;;;;27.25;9.65;;;5.60;99.90;;;;;;10210253;28;84339;-60
2022/01/15 03:58:33;;;;;;;30.80;9.27;;;5.70;99.90;;;;;;10209622;28;84144;-60
2022/01/15 04:03:33;;;;;;;24.80;8.88;;;5.70;99.90;;;;;;10210356;28;84295;-60
2022/01/15 04:08:34;;;;;;;25.95;8.13;;;5.70;99.90;;;;;;10210012;28;84214;-60
2022/01/15 04:13:35;;;;;;;23.98;7.57;;;5.80;99.90;;;;;;10208976;28;84170;-60
2022/01/15 04:18:40;;;;;;;27.58;9.55;;;5.70;99.90;;;;;;10208750;28;84913;-61
2022/01/15 04:23:41;;;;;;;26.27;8.90;;;5.60;99.90;;;;;;10207948;28;84960;-61
2022/01/15 04:28:41;;;;;;;30.65;10.45;;;5.70;99.90;;;;;;10208568;28;84010;-58
2022/01/15 04:33:42;;;;;;;23.65;8.95;;;5.70;99.90;;;;;;10208467;28;85063;-56
2022/01/15 04:38:45;;;;;;;28.05;10.00;;;5.80;99.90;;;;;;10208226;28;84920;-60
2022/01/15 04:43:45;;;;;;;29.65;10.23;;;5.80;99.90;;;;;;10207966;28;84087;-58
2022/01/15 04:48:46;;;;;;;25.63;9.80;;;5.60;99.90;;;;;;10207746;28;84929;-59
2022/01/15 04:53:46;;;;;;;35.80;10.32;;;5.60;99.90;;;;;;10207797;28;84106;-60
2022/01/15 04:58:47;;;;;;;32.17;10.45;;;5.60;99.90;;;;;;10207680;28;84915;-58
2022/01/15 05:03:48;;;;;;;32.10;9.75;;;5.60;99.90;;;;;;10207411;28;84042;-60
2022/01/15 05:08:52;;;;;;;28.60;9.38;;;5.60;99.90;;;;;;10207162;28;83997;-60
2022/01/15 05:13:53;;;;;;;30.55;9.45;;;5.50;99.90;;;;;;10203065;28;86810;-56
2022/01/15 05:18:53;;;;;;;31.65;8.88;;;5.50;99.90;;;;;;10238658;28;85027;-58
2022/01/15 05:23:54;;;;;;;29.05;9.68;;;5.60;99.90;;;;;;10246935;28;85092;-61
2022/01/15 05:28:56;;;;;;;28.23;9.63;;;5.50;99.90;;;;;;10246504;28;84907;-57
2022/01/15 05:33:57;;;;;;;35.55;10.02;;;5.60;99.90;;;;;;10246548;28;85086;-59
2022/01/15 05:38:58;;;;;;;28.90;9.00;;;5.60;99.90;;;;;;10220347;28;84397;-61
2022/01/15 05:44:01;;;;;;;27.98;9.52;;;5.70;99.90;;;;;;10210381;28;84232;-62
2022/01/15 05:49:03;;;;;;;31.88;8.88;;;5.60;99.90;;;;;;10204651;28;84031;-61
2022/01/15 05:54:04;;;;;;;31.75;9.05;;;5.60;99.90;;;;;;10204592;28;84734;-59
2022/01/15 05:59:06;;;;;;;29.17;8.82;;;5.60;99.90;;;;;;10203363;28;84941;-62
2022/01/15 06:04:07;;;;;;;26.98;9.27;;;5.60;99.90;;;;;;10205668;28;84346;-59
2022/01/15 06:09:08;;;;;;;30.60;9.52;;;5.50;99.90;;;;;;10202232;28;86128;-61
2022/01/15 06:14:08;;;;;;;25.88;8.57;;;5.50;99.90;;;;;;10204003;28;84821;-61
2022/01/15 06:19:09;;;;;;;22.88;8.02;;;5.50;99.90;;;;;;10204241;28;84949;-60
2022/01/15 06:24:09;;;;;;;21.27;6.25;;;5.50;99.90;;;;;;10201915;28;85079;-60
2022/01/15 06:29:10;;;;;;;13.98;5.28;;;5.60;99.90;;;;;;10213888;28;84861;-59
2022/01/15 06:34:11;;;;;;;14.80;5.18;;;5.70;99.90;;;;;;10217511;28;84039;-61
2022/01/15 06:39:12;;;;;;;16.38;6.40;;;5.70;99.90;;;;;;10232392;28;84872;-61
2022/01/15 06:44:12;;;;;;;14.23;6.03;;;5.70;99.90;;;;;;10217014;28;84091;-61
2022/01/15 06:49:13;;;;;;;18.38;6.57;;;5.80;99.90;;;;;;10203262;28;85045;-60
2022/01/15 06:54:13;;;;;;;16.95;6.43;;;5.80;99.90;;;;;;10208170;28;84418;-60
2022/01/15 06:59:14;;;;;;;19.65;7.03;;;5.70;99.90;;;;;;10204223;28;84731;-61
2022/01/15 07:04:15;;;;;;;21.80;7.30;;;5.80;99.90;;;;;;10202550;28;84881;-60
2022/01/15 07:09:15;;;;;;;16.58;5.93;;;5.80;99.90;;;;;;10203066;28;84968;-58
2022/01/15 07:14:16;;;;;;;20.27;6.05;;;5.70;99.90;;;;;;10202155;28;84343;-61
2022/01/15 07:19:17;;;;;;;18.40;7.22;;;5.80;99.90;;;;;;10202889;28;84141;-59
2022/01/15 07:24:17;;;;;;;17.52;6.10;;;5.80;99.90;;;;;;10206489;28;84915;-59
2022/01/15 07:29:18;;;;;;;19.45;6.07;;;5.80;99.90;;;;;;10205472;28;84281;-62
2022/01/15 07:34:19;;;;;;;19.00;6.18;;;5.80;99.90;;;;;;10202282;28;84751;-60
2022/01/15 07:39:20;;;;;;;19.75;6.72;;;5.70;99.90;;;;;;10202723;28;84232;-58
2022/01/15 07:44:21;;;;;;;10.55;4.10;;;5.60;99.90;;;;;;10203176;28;84020;-59
2022/01/15 07:49:22;;;;;;;16.05;6.20;;;5.60;99.90;;;;;;10210738;28;84929;-59
2022/01/15 07:54:23;;;;;;;18.70;6.82;;;5.60;99.90;;;;;;10237626;23;85321;-49
2022/01/15 07:59:24;;;;;;;19.00;6.43;;;5.60;99.90;;;;;;10272880;28;84219;-51
2022/01/15 08:04:24;;;;;;;20.30;7.07;;;5.60;99.90;;;;;;10283986;28;85167;-48
2022/01/15 08:09:25;;;;;;;18.05;5.90;;;5.60;99.90;;;;;;10290543;28;85392;-46
2022/01/15 08:14:26;;;;;;;20.50;6.47;;;5.50;99.90;;;;;;10273656;28;84872;-55
2022/01/15 08:19:26;;;;;;;17.98;5.40;;;5.50;99.90;;;;;;10289273;28;84969;-50
2022/01/15 08:24:27;;;;;;;14.80;6.00;;;5.60;99.90;;;;;;10290407;28;84277;-49
2022/01/15 08:29:27;;;;;;;14.82;5.90;;;5.60;99.90;;;;;;10278120;28;85816;-54
2022/01/15 08:34:28;;;;;;;17.70;6.63;;;5.60;99.90;;;;;;10276498;28;85475;-55
2022/01/15 08:39:29;;;;;;;19.98;6.53;;;5.70;99.90;;;;;;10290554;28;84332;-48
2022/01/15 08:44:29;;;;;;;20.40;6.70;;;5.60;99.90;;;;;;10278756;28;85331;-54
2022/01/15 08:49:30;;;;;;;19.80;6.88;;;5.60;99.90;;;;;;10290396;28;84913;-54
2022/01/15 08:54:31;;;;;;;19.98;7.60;;;5.60;99.90;;;;;;10247219;28;85133;-51
2022/01/15 08:59:31;;;;;;;21.35;6.85;;;5.60;99.90;;;;;;10240479;28;85857;-64
2022/01/15 09:04:32;;;;;;;17.02;6.57;;;5.60;99.90;;;;;;10244738;28;84877;-64
2022/01/15 09:09:33;;;;;;;20.75;7.63;;;5.70;99.90;;;;;;10242853;28;85582;-63
2022/01/15 09:14:33;;;;;;;18.17;7.50;;;5.70;99.90;;;;;;10244399;28;84103;-61
2022/01/15 09:19:35;;;;;;;20.90;6.15;;;5.70;99.90;;;;;;10242796;28;84176;-64
2022/01/15 09:24:35;;;;;;;13.98;5.68;;;5.80;99.90;;;;;;10240343;28;87189;-59
2022/01/15 09:34:55;;;;;;;16.52;5.45;;;5.80;99.90;;;;;;10245019;28;85265;-44
2022/01/15 09:39:57;;;;;;;16.45;5.35;;;5.90;99.90;;;;;;10239601;28;85029;-48
2022/01/15 09:44:58;;;;;;;15.40;5.93;;;6.00;99.90;;;;;;10242313;28;85072;-47
2022/01/15 09:50:00;;;;;;;15.30;5.38;;;6.10;99.90;;;;;;10236984;28;86063;-49
2022/01/15 09:55:06;;;;;;;14.55;5.35;;;6.00;99.90;;;;;;10242367;28;85921;-53
2022/01/15 10:00:11;;;;;;;14.32;5.20;;;6.10;99.90;;;;;;10243347;28;84832;-51
2022/01/15 10:05:13;;;;;;;10.75;5.40;;;6.00;99.90;;;;;;10242873;28;84525;-52
2022/01/15 10:10:18;;;;;;;12.50;5.57;;;5.90;99.90;;;;;;10244793;28;84282;-47
2022/01/15 10:15:19;;;;;;;15.10;5.35;;;6.00;99.90;;;;;;10246094;28;84945;-49
2022/01/15 10:20:25;;;;;;;16.27;7.28;;;5.80;99.90;;;;;;10244742;28;84060;-50
2022/01/15 10:25:25;;;;;;;16.77;6.97;;;5.90;99.90;;;;;;10244556;28;84273;-48
2022/01/15 10:30:29;;;;;;;12.98;5.55;;;5.80;99.90;;;;;;10243739;28;85828;-49
2022/01/15 10:35:34;;;;;;;12.38;5.95;;;5.70;99.90;;;;;;10266063;28;84208;-50
2022/01/15 10:40:40;;;;;;;14.05;6.00;;;5.70;99.90;;;;;;10271024;28;84351;-50
2022/01/15 10:45:55;;;;;;;13.93;6.47;;;5.80;99.90;;;;;;10238592;28;84911;-50
2022/01/15 10:50:57;;;;;;;15.13;6.88;;;5.90;99.90;;;;;;10244419;28;84067;-51
2022/01/15 10:55:58;;;;;;;19.13;7.57;;;5.90;99.90;;;;;;10245747;28;84392;-50
2022/01/15 11:00:59;;;;;;;14.55;6.68;;;5.90;99.90;;;;;;10245860;28;84133;-51
2022/01/15 11:05:59;;;;;;;16.08;6.82;;;5.90;99.90;;;;;;10243777;28;84126;-49
2022/01/15 11:11:06;;;;;;;14.02;7.53;;;5.90;99.90;;;;;;10243004;28;84227;-48
2022/01/15 11:16:10;;;;;;;18.70;8.55;;;6.00;99.90;;;;;;10239073;28;84319;-51
2022/01/15 11:21:15;;;;;;;20.25;8.68;;;6.10;99.90;;;;;;10244723;28;85193;-50
2022/01/15 11:26:21;;;;;;;18.05;7.78;;;6.00;99.90;;;;;;10239763;28;84156;-51
2022/01/15 11:31:33;;;;;;;19.80;8.73;;;6.10;99.90;;;;;;10239715;28;84916;-48
2022/01/15 11:36:35;;;;;;;15.02;6.97;;;6.20;99.90;;;;;;10244397;28;84915;-48
2022/01/15 11:41:38;;;;;;;17.10;7.30;;;6.30;99.90;;;;;;10250537;28;84031;-50
2022/01/15 11:46:49;;;;;;;8.70;5.38;;;6.40;99.90;;;;;;10250641;28;84784;-47
2022/01/15 11:51:55;;;;;;;9.40;4.47;;;6.50;99.90;;;;;;10247464;28;84105;-46
2022/01/15 11:56:55;;;;;;;10.27;3.80;;;6.30;99.90;;;;;;10250567;28;84940;-49
2022/01/15 12:02:05;;;;;;;7.40;4.00;;;6.20;99.90;;;;;;10242460;28;84845;-48
2022/01/15 12:07:06;;;;;;;8.13;4.03;;;6.40;99.90;;;;;;10241441;28;85010;-48
2022/01/15 12:12:19;;;;;;;13.60;4.75;;;6.30;99.90;;;;;;10265176;28;84947;-49
2022/01/15 12:17:28;;;;;;;11.15;4.85;;;6.50;99.90;;;;;;10241613;28;85091;-51
2022/01/15 12:22:50;;;;;;;7.90;4.60;;;6.40;99.90;;;;;;10249540;28;85037;-48
2022/01/15 12:27:59;;;;;;;10.02;4.53;;;6.40;99.90;;;;;;10224599;28;84112;-50
2022/01/15 12:33:03;;;;;;;10.40;4.38;;;6.50;99.90;;;;;;10230064;28;85375;-45
2022/01/15 12:38:10;;;;;;;7.15;3.88;;;6.50;99.90;;;;;;10256627;28;85009;-49
2022/01/15 12:43:17;;;;;;;12.93;5.70;;;6.50;99.90;;;;;;10250359;28;85005;-49
2022/01/15 12:48:21;;;;;;;8.15;4.25;;;6.40;99.90;;;;;;10255602;28;84531;-51
2022/01/15 12:53:25;;;;;;;8.30;3.80;;;6.40;99.90;;;;;;10251357;28;85465;-51
2022/01/15 12:58:28;;;;;;;11.30;4.88;;;6.30;99.90;;;;;;10244367;28;85751;-49
2022/01/15 13:03:30;;;;;;;12.60;5.03;;;6.20;99.90;;;;;;10244925;28;84644;-49
2022/01/15 13:08:37;;;;;;;9.50;4.55;;;6.00;99.90;;;;;;10245521;28;84258;-48
2022/01/15 13:13:43;;;;;;;8.13;4.35;;;6.00;99.90;;;;;;10238018;28;85254;-49
2022/01/15 13:18:50;;;;;;;9.38;5.35;;;6.10;99.90;;;;;;10252910;28;84205;-50
2022/01/15 13:23:54;;;;;;;18.15;7.25;;;6.10;99.90;;;;;;10232741;28;84949;-50
2022/01/15 13:28:56;;;;;;;16.63;7.63;;;6.10;99.90;;;;;;10224389;28;84112;-49
2022/01/15 13:34:09;;;;;;;15.52;6.88;;;6.20;99.90;;;;;;10223097;28;87436;-53
2022/01/15 13:39:12;;;;;;;17.25;7.43;;;6.30;99.90;;;;;;10251574;28;84873;-48
2022/01/15 13:44:15;;;;;;;12.98;6.82;;;6.40;99.90;;;;;;10251079;28;84042;-48
2022/01/15 13:49:24;;;;;;;12.75;5.70;;;6.40;99.90;;;;;;10246699;28;84245;-52
2022/01/15 13:54:24;;;;;;;13.90;6.60;;;6.30;99.90;;;;;;10273973;23;85096;-60
2022/01/15 13:59:25;;;;;;;12.77;6.15;;;6.40;99.90;;;;;;10241929;28;84911;-57
2022/01/15 14:04:34;;;;;;;11.60;5.60;;;6.30;99.90;;;;;;10252442;28;84909;-56
2022/01/15 14:09:37;;;;;;;7.72;3.80;;;6.30;99.90;;;;;;10253846;28;83980;-57
2022/01/15 14:15:02;;;;;;;8.45;3.92;;;6.20;99.90;;;;;;10251390;28;84133;-59
2022/01/15 14:20:16;;;;;;;6.65;3.58;;;6.10;99.90;;;;;;10271029;28;85827;-56
2022/01/15 14:25:23;;;;;;;7.32;3.80;;;5.90;99.90;;;;;;10224524;28;85991;-59
2022/01/15 14:30:23;;;;;;;5.93;3.58;;;6.00;99.90;;;;;;10233748;28;86184;-57
2022/01/15 14:35:25;;;;;;;6.70;3.88;;;6.00;99.90;;;;;;10249839;28;87191;-59
2022/01/15 14:40:27;;;;;;;6.85;3.83;;;6.00;99.90;;;;;;10257356;28;84859;-59
2022/01/15 14:45:28;;;;;;;7.82;3.72;;;5.80;99.90;;;;;;10252092;28;84916;-59
2022/01/15 14:50:28;;;;;;;5.15;3.22;;;5.70;99.90;;;;;;10252145;28;86484;-60
2022/01/15 14:55:32;;;;;;;6.30;3.28;;;5.80;99.90;;;;;;10262169;28;84281;-56
2022/01/15 15:00:33;;;;;;;9.90;3.97;;;5.90;99.90;;;;;;10261368;28;84973;-57
2022/01/15 15:05:33;;;;;;;5.57;3.20;;;5.70;99.90;;;;;;10263350;28;83998;-59
2022/01/15 15:10:34;;;;;;;8.00;4.07;;;5.80;99.90;;;;;;10269410;28;84779;-60
2022/01/15 15:15:35;;;;;;;6.97;3.20;;;5.80;99.90;;;;;;10257597;28;85706;-57
2022/01/15 15:20:35;;;;;;;6.63;3.47;;;5.70;99.90;;;;;;10286587;28;84897;-57
2022/01/15 15:25:37;;;;;;;6.50;3.75;;;5.60;99.90;;;;;;10298266;28;84790;-58
2022/01/15 15:30:37;;;;;;;8.30;3.90;;;5.60;99.90;;;;;;10260008;28;84129;-58
2022/01/15 15:35:38;;;;;;;8.05;4.30;;;5.60;99.90;;;;;;10254928;28;84738;-59
2022/01/15 15:40:39;;;;;;;7.93;4.32;;;5.80;99.90;;;;;;10252033;28;85018;-60
2022/01/15 15:45:40;;;;;;;7.70;4.22;;;5.70;99.90;;;;;;10246953;28;84995;-60
2022/01/15 15:50:43;;;;;;;5.53;3.50;;;5.70;99.90;;;;;;10243719;28;84264;-58
2022/01/15 15:55:44;;;;;;;4.57;2.85;;;5.50;99.90;;;;;;10254965;28;84250;-56
2022/01/15 16:00:45;;;;;;;10.02;4.25;;;5.30;99.90;;;;;;10292813;28;84675;-59
2022/01/15 16:05:46;;;;;;;6.30;3.72;;;5.20;99.90;;;;;;10286040;28;85444;-56
2022/01/15 16:10:47;;;;;;;9.85;4.38;;;5.30;99.90;;;;;;10252693;28;84262;-52
2022/01/15 16:15:48;;;;;;;9.10;3.90;;;5.30;99.90;;;;;;10248944;28;84852;-58
2022/01/15 16:20:48;;;;;;;6.97;3.60;;;5.10;99.90;;;;;;10250030;28;84478;-56
2022/01/15 16:25:49;;;;;;;7.18;3.97;;;5.10;99.90;;;;;;10248810;28;87139;-58
2022/01/15 16:30:50;;;;;;;8.57;3.65;;;5.10;99.90;;;;;;10248618;28;84566;-54
2022/01/15 16:35:51;;;;;;;7.25;3.38;;;5.10;99.90;;;;;;10246027;28;85296;-57
2022/01/15 16:40:51;;;;;;;8.00;4.00;;;5.10;99.90;;;;;;10250915;28;85100;-57
2022/01/15 16:45:52;;;;;;;6.75;4.00;;;4.90;99.90;;;;;;10263548;28;85459;-59
2022/01/15 16:50:53;;;;;;;10.55;5.32;;;4.70;99.90;;;;;;10242636;28;84527;-57
2022/01/15 16:55:54;;;;;;;8.85;4.22;;;4.70;99.90;;;;;;10242112;28;84267;-54
2022/01/15 17:00:57;;;;;;;7.50;4.47;;;4.80;99.90;;;;;;10249362;28;86140;-55
2022/01/15 17:05:58;;;;;;;9.02;5.15;;;4.90;99.90;;;;;;10249047;28;84152;-55
2022/01/15 17:11:00;;;;;;;11.40;6.03;;;4.90;99.90;;;;;;10250112;28;85936;-54
2022/01/15 17:16:01;;;;;;;10.25;5.32;;;4.80;99.90;;;;;;10230218;28;85337;-59
2022/01/15 17:21:01;;;;;;;10.73;5.35;;;4.70;99.90;;;;;;10246233;28;86491;-55
2022/01/15 17:26:02;;;;;;;14.23;5.80;;;4.70;99.90;;;;;;10244791;28;85075;-54
2022/01/15 17:31:03;;;;;;;10.85;6.25;;;4.70;99.90;;;;;;10250079;28;85372;-58
2022/01/15 17:36:05;;;;;;;11.07;5.40;;;4.60;99.90;;;;;;10252597;28;84053;-57
2022/01/15 17:41:05;;;;;;;11.07;5.78;;;4.50;99.90;;;;;;10281280;28;84989;-54
2022/01/15 17:46:07;;;;;;;14.90;7.20;;;4.50;99.90;;;;;;10287512;28;85064;-58
2022/01/15 17:51:09;;;;;;;10.52;5.35;;;4.60;99.90;;;;;;10289728;28;84142;-55
2022/01/15 17:56:09;;;;;;;8.57;4.97;;;4.40;99.90;;;;;;10239576;28;84159;-54
2022/01/15 18:01:11;;;;;;;11.98;6.03;;;4.40;99.90;;;;;;10238593;28;84120;-56
2022/01/15 18:06:12;;;;;;;12.32;5.32;;;4.40;99.90;;;;;;10231667;28;84153;-56
2022/01/15 18:11:15;;;;;;;11.75;5.07;;;4.40;99.90;;;;;;10232447;28;86417;-55
2022/01/15 18:16:16;;;;;;;10.38;5.15;;;4.30;99.90;;;;;;10251003;28;85028;-58
2022/01/15 18:21:16;;;;;;;17.65;5.95;;;4.20;99.90;;;;;;10269580;28;86907;-58
2022/01/15 18:26:18;;;;;;;8.88;4.47;;;4.20;99.90;;;;;;10257170;28;84354;-54
2022/01/15 18:31:19;;;;;;;10.68;5.38;;;4.20;99.90;;;;;;10253399;28;84379;-58
2022/01/15 18:36:20;;;;;;;23.40;5.85;;;4.10;99.90;;;;;;10248724;28;84326;-57
2022/01/15 18:41:21;;;;;;;17.40;6.22;;;4.20;99.90;;;;;;10248367;28;84457;-56
2022/01/15 18:46:24;;;;;;;13.95;6.30;;;4.20;99.90;;;;;;10252324;28;84152;-63
2022/01/15 18:51:25;;;;;;;14.18;6.30;;;4.20;99.90;;;;;;10248212;28;86040;-60
2022/01/15 18:56:26;;;;;;;16.13;6.72;;;4.10;99.90;;;;;;10248761;28;84309;-62
2022/01/15 19:01:26;;;;;;;13.27;7.05;;;4.00;99.90;;;;;;10249163;28;84119;-63
2022/01/15 19:06:27;;;;;;;20.45;8.07;;;4.00;99.90;;;;;;10254581;28;84042;-63
2022/01/15 19:11:31;;;;;;;14.60;6.57;;;4.00;99.90;;;;;;10246520;28;84301;-58
2022/01/15 19:16:33;;;;;;;18.58;6.72;;;4.10;99.90;;;;;;10244309;28;84047;-61
2022/01/15 19:21:33;;;;;;;17.17;6.97;;;4.10;99.90;;;;;;10229747;28;84903;-62
2022/01/15 19:26:36;;;;;;;17.33;5.82;;;4.10;99.90;;;;;;10245614;28;85082;-61
2022/01/15 19:31:37;;;;;;;19.45;6.40;;;4.00;99.90;;;;;;10245749;28;84943;-62
2022/01/15 19:36:38;;;;;;;17.10;5.70;;;3.90;99.90;;;;;;10244987;28;86623;-57
2022/01/15 19:41:39;;;;;;;14.90;5.78;;;3.70;99.90;;;;;;10242872;28;84222;-57
2022/01/15 19:46:40;;;;;;;13.57;6.10;;;3.50;99.90;;;;;;10242883;28;84971;-55
2022/01/15 19:51:40;;;;;;;14.85;5.50;;;3.50;99.90;;;;;;10245960;28;84481;-53
2022/01/15 19:56:41;;;;;;;21.50;7.65;;;3.50;99.90;;;;;;10259165;22;86122;-48
2022/01/15 20:01:42;;;;;;;19.38;7.40;;;3.50;99.90;;;;;;10246753;28;84937;-47
2022/01/15 20:06:42;;;;;;;18.98;7.45;;;3.60;99.90;;;;;;10250682;28;84657;-46
2022/01/15 20:11:43;;;;;;;19.92;7.18;;;3.70;99.90;;;;;;10250436;28;84150;-46
2022/01/15 20:16:44;;;;;;;20.30;7.38;;;3.70;99.90;;;;;;10249219;28;84951;-47
2022/01/15 20:21:45;;;;;;;22.40;7.90;;;3.60;99.90;;;;;;10251674;28;84109;-46
2022/01/15 20:26:46;;;;;;;18.35;7.05;;;3.50;99.90;;;;;;10248015;28;87535;-49
2022/01/15 20:31:47;;;;;;;17.95;6.38;;;3.40;99.90;;;;;;10250374;28;84873;-47
2022/01/15 20:36:52;;;;;;;23.08;7.97;;;3.40;99.90;;;;;;10249913;28;84124;-47
2022/01/15 20:41:54;;;;;;;23.65;8.45;;;3.60;99.90;;;;;;10249278;28;84197;-46
2022/01/15 20:46:55;;;;;;;17.00;6.95;;;3.60;99.90;;;;;;10248859;28;85024;-46
2022/01/15 20:51:56;;;;;;;20.95;7.45;;;3.50;99.90;;;;;;10249035;28;85144;-47
2022/01/15 20:56:56;;;;;;;21.90;8.05;;;3.40;99.90;;;;;;10247966;28;84323;-47
2022/01/15 21:01:57;;;;;;;15.60;6.05;;;3.50;99.90;;;;;;10248161;28;85045;-47
2022/01/15 21:06:58;;;;;;;16.63;6.57;;;3.60;99.90;;;;;;10248485;28;84891;-46
2022/01/15 21:11:58;;;;;;;17.70;6.20;;;3.60;99.90;;;;;;10247582;28;88387;-47
2022/01/15 21:16:59;;;;;;;20.75;7.82;;;3.40;99.90;;;;;;10246499;28;84855;-46
2022/01/15 21:21:59;;;;;;;20.83;7.25;;;3.50;99.90;;;;;;10249341;28;84141;-48
2022/01/15 21:27:00;;;;;;;17.85;6.50;;;3.50;99.90;;;;;;10247894;28;85399;-47
2022/01/15 21:32:03;;;;;;;18.30;4.88;;;3.50;99.90;;;;;;10245416;28;85436;-47
2022/01/15 21:37:04;;;;;;;15.93;6.18;;;3.50;99.90;;;;;;10243003;28;84843;-45
2022/01/15 21:42:05;;;;;;;16.52;6.15;;;3.50;99.90;;;;;;10249656;28;84121;-48
2022/01/15 21:47:06;;;;;;;15.73;5.82;;;3.50;99.90;;;;;;10242009;28;84229;-46
2022/01/15 21:52:07;;;;;;;13.80;4.97;;;3.30;99.90;;;;;;10248681;28;84342;-46
2022/01/15 21:57:08;;;;;;;15.95;6.03;;;3.30;99.90;;;;;;10247621;28;84923;-46
2022/01/15 22:02:11;;;;;;;14.95;5.57;;;3.50;99.90;;;;;;10248257;28;84911;-46
2022/01/15 22:07:12;;;;;;;15.45;5.72;;;3.50;99.90;;;;;;10247005;28;85102;-47
2022/01/15 22:12:19;;;;;;;17.55;5.57;;;3.40;99.90;;;;;;10247200;28;84201;-47
2022/01/15 22:17:19;;;;;;;16.50;5.72;;;3.40;99.90;;;;;;10249507;28;86340;-45
2022/01/15 22:22:20;;;;;;;18.98;5.40;;;3.50;99.90;;;;;;10244730;28;86263;-46
2022/01/15 22:27:20;;;;;;;14.60;6.68;;;3.50;99.90;;;;;;10246160;28;84837;-48
2022/01/15 22:32:21;;;;;;;18.00;5.20;;;3.50;99.90;;;;;;10245922;28;84959;-44
2022/01/15 22:37:22;;;;;;;18.17;5.45;;;3.50;99.90;;;;;;10249962;28;86008;-48
2022/01/15 22:42:25;;;;;;;20.05;6.32;;;3.50;99.90;;;;;;10245923;28;84149;-50
2022/01/15 22:47:26;;;;;;;13.05;4.95;;;3.60;99.90;;;;;;10245705;28;85570;-45
2022/01/15 22:52:30;;;;;;;15.48;5.43;;;3.70;99.90;;;;;;10246012;28;85073;-47
2022/01/15 22:57:30;;;;;;;19.25;5.05;;;3.80;99.90;;;;;;10244496;28;84158;-47
2022/01/15 23:02:31;;;;;;;16.88;5.70;;;3.80;99.90;;;;;;10245662;28;84777;-48
2022/01/15 23:07:31;;;;;;;12.45;5.18;;;3.90;99.90;;;;;;10245049;28;84935;-48
2022/01/15 23:12:32;;;;;;;21.63;6.00;;;3.80;99.90;;;;;;10245472;28;84916;-49
2022/01/15 23:17:33;;;;;;;18.85;5.93;;;3.80;99.90;;;;;;10244400;28;84934;-47
2022/01/15 23:22:33;;;;;;;22.35;6.03;;;3.80;99.90;;;;;;10244884;28;84140;-46
2022/01/15 23:27:34;;;;;;;16.15;5.78;;;3.80;99.90;;;;;;10246484;28;84843;-46
2022/01/15 23:32:35;;;;;;;16.40;5.57;;;3.80;99.90;;;;;;10251694;28;84761;-46
2022/01/15 23:37:36;;;;;;;19.17;6.18;;;3.80;99.90;;;;;;10251364;28;84929;-44
2022/01/15 23:42:40;;;;;;;16.00;6.07;;;3.80;99.90;;;;;;10251329;28;84979;-45
2022/01/15 23:47:41;;;;;;;14.98;5.45;;;3.90;99.90;;;;;;10250248;28;84944;-46
2022/01/15 23:52:42;;;;;;;23.40;7.60;;;3.90;99.90;;;;;;10251333;28;84020;-48
2022/01/15 23:57:43;;;;;;;24.02;8.23;;;4.00;99.90;;;;;;10249913;28;84286;-45
